Time;durP1;ratioP1;P1;durP2;ratioP2;P2;SDS_P1;SDS_P2;PMS_P1;PMS_P2;Temp;Humidity;BMP_temperature;BMP_pressure;BME280_temperature;BME280_humidity;BME280_pressure;Samples;Min_cycle;Max_cycle;Signal;HPM_P1;HPM_P2
2022/12/12 00:01:18;;;;;;;23.70;14.40;;;2.50;99.90;;;;;;5039982;28;20029;-40
2022/12/12 00:03:44;;;;;;;20.65;14.13;;;2.40;99.90;;;;;;5039337;28;20035;-37
2022/12/12 00:06:10;;;;;;;22.20;14.80;;;2.40;99.90;;;;;;5038755;28;20025;-40
2022/12/12 00:08:36;;;;;;;21.52;14.82;;;2.40;99.90;;;;;;5039863;28;20021;-40
2022/12/12 00:11:03;;;;;;;21.30;14.02;;;2.40;99.90;;;;;;5020491;28;20401;-39
2022/12/12 00:13:31;;;;;;;22.60;14.95;;;2.40;99.90;;;;;;5033618;28;20025;-36
2022/12/12 00:15:56;;;;;;;20.63;14.30;;;2.40;99.90;;;;;;5038907;28;20050;-40
2022/12/12 00:18:25;;;;;;;21.52;14.15;;;2.40;99.90;;;;;;5039289;28;20736;-37
2022/12/12 00:20:55;;;;;;;20.77;13.00;;;2.40;99.90;;;;;;5038395;28;20353;-39
2022/12/12 00:23:25;;;;;;;18.55;12.43;;;2.40;99.90;;;;;;5039485;28;20113;-39
2022/12/12 00:26:00;;;;;;;19.77;12.80;;;2.40;99.90;;;;;;5039028;28;20028;-38
2022/12/12 00:28:26;;;;;;;19.67;12.77;;;2.50;99.90;;;;;;5038345;28;20610;-40
2022/12/12 00:30:52;;;;;;;17.20;12.57;;;2.50;99.90;;;;;;5039010;28;20571;-39
2022/12/12 00:33:17;;;;;;;17.90;12.48;;;2.50;99.90;;;;;;5038989;28;20040;-39
2022/12/12 00:35:43;;;;;;;17.90;11.82;;;2.50;99.90;;;;;;5038739;28;20101;-42
2022/12/12 00:38:09;;;;;;;16.50;11.77;;;2.50;99.90;;;;;;5040115;28;20025;-40
2022/12/12 00:40:35;;;;;;;20.23;12.15;;;2.50;99.90;;;;;;5039393;28;20032;-39
2022/12/12 00:43:00;;;;;;;18.50;12.68;;;2.50;99.90;;;;;;5038790;28;20032;-38
2022/12/12 00:45:26;;;;;;;17.67;12.02;;;2.50;99.90;;;;;;5039633;28;20029;-39
2022/12/12 00:47:52;;;;;;;17.75;12.48;;;2.50;99.90;;;;;;5039479;28;20025;-39
2022/12/12 00:50:17;;;;;;;18.70;12.30;;;2.50;99.90;;;;;;5038499;28;20029;-39
2022/12/12 00:52:43;;;;;;;18.75;12.73;;;2.50;99.90;;;;;;5039105;28;20029;-39
2022/12/12 00:55:11;;;;;;;17.10;11.25;;;2.50;99.90;;;;;;5038729;28;20041;-41
2022/12/12 00:57:39;;;;;;;16.50;10.80;;;2.60;99.90;;;;;;5019319;28;20040;-39
2022/12/12 01:00:08;;;;;;;16.42;11.75;;;2.60;99.90;;;;;;5033961;28;20120;-37
2022/12/12 01:02:34;;;;;;;15.88;10.93;;;2.60;99.90;;;;;;5038217;28;20035;-39
2022/12/12 01:04:59;;;;;;;17.88;12.60;;;2.60;99.90;;;;;;5038602;28;20017;-41
2022/12/12 01:07:25;;;;;;;17.90;11.98;;;2.60;99.90;;;;;;5039655;28;20028;-39
2022/12/12 01:09:50;;;;;;;17.98;11.27;;;2.60;99.90;;;;;;5041531;28;20025;-41
2022/12/12 01:12:16;;;;;;;15.68;11.00;;;2.50;99.90;;;;;;5042961;28;20400;-40
2022/12/12 01:14:42;;;;;;;17.30;11.63;;;2.50;99.90;;;;;;5043207;28;20029;-39
2022/12/12 01:17:07;;;;;;;17.52;12.13;;;2.50;99.90;;;;;;5041906;28;20017;-40
2022/12/12 01:19:33;;;;;;;16.58;11.82;;;2.50;99.90;;;;;;5042504;28;20032;-39
2022/12/12 01:21:58;;;;;;;17.92;11.25;;;2.50;99.90;;;;;;5042625;28;20024;-39
2022/12/12 01:24:24;;;;;;;18.80;12.00;;;2.50;99.90;;;;;;5041781;28;20031;-40
2022/12/12 01:26:50;;;;;;;18.20;12.10;;;2.50;99.90;;;;;;5042508;28;20013;-39
2022/12/12 01:29:15;;;;;;;18.02;12.55;;;2.50;99.90;;;;;;5041977;28;20037;-40
2022/12/12 01:31:41;;;;;;;18.15;12.63;;;2.50;99.90;;;;;;5040602;28;20049;-37
2022/12/12 01:34:07;;;;;;;19.27;13.43;;;2.50;99.90;;;;;;5042240;28;20044;-40
2022/12/12 01:36:32;;;;;;;21.17;13.27;;;2.50;99.90;;;;;;5041992;28;20556;-39
2022/12/12 01:38:59;;;;;;;20.25;14.15;;;2.50;99.90;;;;;;5041538;28;20060;-38
2022/12/12 01:41:25;;;;;;;17.67;12.43;;;2.50;99.90;;;;;;5041244;28;20025;-39
2022/12/12 01:43:51;;;;;;;19.67;13.13;;;2.50;99.90;;;;;;5041866;28;20036;-36
2022/12/12 01:46:38;;;;;;;22.02;13.73;;;2.50;99.90;;;;;;5041538;28;20569;-39
2022/12/12 01:49:14;;;;;;;22.77;14.02;;;2.50;99.90;;;;;;5041542;28;20048;-39
2022/12/12 01:51:40;;;;;;;20.80;13.75;;;2.40;99.90;;;;;;5041402;28;20025;-38
2022/12/12 01:54:09;;;;;;;19.05;13.23;;;2.50;99.90;;;;;;5041597;28;20112;-37
2022/12/12 01:56:37;;;;;;;17.45;11.82;;;2.40;99.90;;;;;;5041105;28;20021;-37
2022/12/12 01:59:06;;;;;;;18.67;12.93;;;2.40;99.90;;;;;;5040861;28;20029;-37
2022/12/12 02:01:32;;;;;;;18.70;12.20;;;2.40;99.90;;;;;;5041967;28;20468;-38
2022/12/12 02:04:00;;;;;;;17.63;12.02;;;2.40;99.90;;;;;;5041816;28;20572;-38
2022/12/12 02:06:28;;;;;;;18.17;12.63;;;2.30;99.90;;;;;;5041636;28;20090;-36
2022/12/12 02:09:01;;;;;;;18.77;12.32;;;2.30;99.90;;;;;;5041599;28;20032;-39
2022/12/12 02:11:29;;;;;;;18.70;11.88;;;2.30;99.90;;;;;;5041867;28;20025;-40
2022/12/12 02:13:55;;;;;;;18.95;12.30;;;2.20;99.90;;;;;;5040938;28;20056;-41
2022/12/12 02:17:02;;;;;;;18.30;12.27;;;2.20;99.90;;;;;;5040938;28;20017;-40
2022/12/12 02:19:47;;;;;;;18.13;12.10;;;2.20;99.90;;;;;;5033140;28;20033;-39
2022/12/12 02:22:41;;;;;;;19.55;12.43;;;2.20;99.90;;;;;;5041769;28;20107;-37
2022/12/12 02:25:50;;;;;;;19.13;12.48;;;2.20;99.90;;;;;;5041440;28;20403;-42
2022/12/12 02:28:52;;;;;;;22.33;12.85;;;2.20;99.90;;;;;;5040598;28;20060;-35
2022/12/12 02:31:33;;;;;;;18.67;12.68;;;2.10;99.90;;;;;;5041045;28;20079;-38
2022/12/12 02:34:45;;;;;;;19.35;12.68;;;2.20;99.90;;;;;;5040099;28;20037;-42
2022/12/12 02:37:45;;;;;;;18.23;11.65;;;2.20;99.90;;;;;;5016849;28;20084;-39
2022/12/12 02:40:30;;;;;;;18.73;12.50;;;2.20;99.90;;;;;;5033846;28;20071;-39
2022/12/12 02:43:07;;;;;;;18.80;12.48;;;2.20;99.90;;;;;;5040763;28;20033;-39
2022/12/12 02:45:44;;;;;;;19.20;12.25;;;2.20;99.90;;;;;;5041376;28;20721;-39
2022/12/12 02:48:39;;;;;;;19.63;12.10;;;2.20;99.90;;;;;;5040025;28;20025;-40
2022/12/12 02:51:07;;;;;;;19.85;13.25;;;2.20;99.90;;;;;;5039788;28;20073;-41
2022/12/12 02:53:33;;;;;;;18.20;12.05;;;2.20;99.90;;;;;;5039830;28;20481;-40
2022/12/12 02:56:28;;;;;;;19.45;12.38;;;2.20;99.90;;;;;;5039909;28;20106;-40
2022/12/12 02:58:54;;;;;;;19.23;12.60;;;2.20;99.90;;;;;;5040574;28;20862;-38
2022/12/12 03:01:39;;;;;;;20.45;13.50;;;2.20;99.90;;;;;;5040776;28;20395;-39
2022/12/12 03:10:24;;;;;;;17.88;12.18;;;2.20;99.90;;;;;;5038605;28;20075;-40
2022/12/12 03:13:30;;;;;;;20.02;12.85;;;2.20;99.90;;;;;;5040267;28;20094;-39
2022/12/12 03:16:19;;;;;;;21.10;13.63;;;2.20;99.90;;;;;;5025768;28;20060;-39
2022/12/12 03:19:03;;;;;;;19.70;13.30;;;2.20;99.90;;;;;;5039839;28;20028;-39
2022/12/12 03:21:51;;;;;;;17.45;11.98;;;2.10;99.90;;;;;;5040835;28;20025;-39
2022/12/12 03:24:34;;;;;;;18.83;13.15;;;2.10;99.90;;;;;;5039150;28;20039;-39
2022/12/12 03:27:13;;;;;;;18.20;12.32;;;1.90;99.90;;;;;;5040278;28;20021;-39
2022/12/12 03:29:47;;;;;;;18.92;12.05;;;1.90;99.90;;;;;;5039894;28;20025;-39
2022/12/12 03:32:18;;;;;;;20.40;12.60;;;1.80;99.90;;;;;;5038791;28;20785;-40
2022/12/12 03:34:51;;;;;;;17.83;11.77;;;1.70;99.90;;;;;;5040344;28;20033;-37
2022/12/12 03:37:30;;;;;;;18.70;12.27;;;1.70;99.90;;;;;;5039430;28;20345;-39
2022/12/12 03:40:10;;;;;;;19.52;12.48;;;1.60;99.90;;;;;;5039486;28;20029;-39
2022/12/12 03:42:44;;;;;;;17.92;11.85;;;1.50;99.90;;;;;;5040174;28;20056;-39
2022/12/12 03:45:24;;;;;;;21.70;12.27;;;1.50;99.90;;;;;;5039257;28;20593;-40
2022/12/12 03:47:58;;;;;;;18.08;11.82;;;1.40;99.90;;;;;;5040649;28;20128;-39
2022/12/12 03:50:32;;;;;;;18.83;12.93;;;1.30;99.90;;;;;;5040069;28;20482;-39
2022/12/12 03:53:08;;;;;;;19.38;12.57;;;1.30;99.90;;;;;;5038643;28;20032;-36
2022/12/12 03:55:40;;;;;;;19.05;12.65;;;1.20;99.90;;;;;;5039313;28;20054;-38
2022/12/12 03:58:19;;;;;;;18.27;11.77;;;1.20;99.90;;;;;;5039154;28;20871;-39
2022/12/12 04:00:47;;;;;;;20.20;12.68;;;1.20;99.90;;;;;;5038997;28;20033;-39
2022/12/12 04:03:36;;;;;;;18.67;11.65;;;1.20;99.90;;;;;;5039644;28;20040;-37
2022/12/12 04:06:27;;;;;;;20.40;12.50;;;1.10;99.90;;;;;;5038728;28;20475;-39
2022/12/12 04:15:17;;;;;;;18.88;12.00;;;1.00;99.90;;;;;;5019949;28;20645;-38
2022/12/12 04:17:54;;;;;;;18.60;11.85;;;1.00;99.90;;;;;;5037468;28;20029;-40
2022/12/12 04:23:34;;;;;;;19.30;12.55;;;0.90;99.90;;;;;;5029038;28;20727;-38
2022/12/12 04:29:05;;;;;;;17.60;12.32;;;0.90;99.90;;;;;;5039675;28;20068;-39
2022/12/12 04:31:33;;;;;;;18.55;12.15;;;0.80;99.90;;;;;;5039294;28;20766;-40
2022/12/12 04:34:06;;;;;;;16.73;11.40;;;0.80;99.90;;;;;;5037123;28;20396;-40
2022/12/12 04:36:34;;;;;;;20.90;13.10;;;0.80;99.90;;;;;;5033550;28;20032;-40
2022/12/12 04:39:01;;;;;;;19.80;12.27;;;0.80;99.90;;;;;;5039416;28;20021;-40
2022/12/12 04:41:29;;;;;;;17.88;12.05;;;0.80;99.90;;;;;;5038919;28;20017;-39
2022/12/12 04:43:57;;;;;;;18.10;12.10;;;0.80;99.90;;;;;;5042628;28;20025;-39
2022/12/12 04:46:27;;;;;;;19.02;12.68;;;0.70;99.90;;;;;;5043456;28;20023;-39
2022/12/12 04:48:54;;;;;;;20.10;13.00;;;0.70;99.90;;;;;;5042484;28;20025;-41
2022/12/12 04:51:29;;;;;;;21.40;13.20;;;0.70;99.90;;;;;;5042581;28;20134;-40
2022/12/12 04:54:15;;;;;;;21.60;13.23;;;0.70;99.90;;;;;;5042995;28;20033;-39
2022/12/12 04:56:44;;;;;;;19.67;12.57;;;0.70;99.90;;;;;;5042512;28;20056;-40
2022/12/12 04:59:10;;;;;;;19.45;13.43;;;0.70;99.90;;;;;;5042495;28;20036;-40
2022/12/12 05:01:58;;;;;;;19.45;13.02;;;0.70;99.90;;;;;;5042013;28;20033;-40
2022/12/12 05:04:34;;;;;;;19.13;12.55;;;0.70;99.90;;;;;;5042558;28;20124;-41
2022/12/12 05:07:07;;;;;;;17.05;11.35;;;0.70;99.90;;;;;;5042459;28;20076;-37
2022/12/12 05:09:34;;;;;;;21.50;12.70;;;0.70;99.90;;;;;;5042035;28;20815;-39
2022/12/12 05:11:59;;;;;;;21.55;13.13;;;0.70;99.90;;;;;;5042376;28;20049;-39
2022/12/12 05:14:26;;;;;;;20.23;12.27;;;0.60;99.90;;;;;;5043046;28;20945;-38
2022/12/12 05:16:55;;;;;;;18.35;12.57;;;0.70;99.90;;;;;;5041804;28;20541;-34
2022/12/12 05:19:21;;;;;;;22.83;13.80;;;0.70;99.90;;;;;;5042426;28;20024;-37
2022/12/12 05:21:48;;;;;;;18.73;12.50;;;0.60;99.90;;;;;;5042788;28;20033;-39
2022/12/12 05:24:13;;;;;;;20.40;13.45;;;0.60;99.90;;;;;;5041788;28;20037;-36
2022/12/12 05:26:39;;;;;;;23.02;14.02;;;0.60;99.90;;;;;;5042743;28;20463;-39
2022/12/12 05:29:05;;;;;;;20.08;13.05;;;0.60;99.90;;;;;;5042478;28;20051;-37
2022/12/12 05:31:31;;;;;;;20.02;12.73;;;0.50;99.90;;;;;;5041446;28;20486;-37
2022/12/12 05:33:56;;;;;;;20.98;13.20;;;0.50;99.90;;;;;;5041449;28;20036;-40
2022/12/12 05:36:22;;;;;;;21.98;13.95;;;0.50;99.90;;;;;;5041545;28;20357;-37
2022/12/12 05:38:47;;;;;;;21.70;13.60;;;0.50;99.90;;;;;;5042214;28;20033;-40
2022/12/12 05:41:14;;;;;;;20.05;13.88;;;0.50;99.90;;;;;;5042345;28;20025;-37
2022/12/12 05:43:39;;;;;;;22.20;13.13;;;0.40;99.90;;;;;;5041610;28;20040;-40
2022/12/12 05:46:06;;;;;;;19.52;13.05;;;0.40;99.90;;;;;;5042265;28;20033;-37
2022/12/12 05:48:32;;;;;;;22.65;13.82;;;0.40;99.90;;;;;;5042202;28;20029;-37
2022/12/12 05:51:00;;;;;;;22.75;13.90;;;0.40;99.90;;;;;;5041132;28;20029;-40
2022/12/12 05:53:26;;;;;;;20.58;13.10;;;0.30;99.90;;;;;;5042240;28;20031;-39
2022/12/12 05:55:52;;;;;;;22.20;13.55;;;0.30;99.90;;;;;;5041279;28;20037;-37
2022/12/12 05:58:18;;;;;;;22.92;14.10;;;0.30;99.90;;;;;;5041344;28;20029;-40
2022/12/12 06:00:47;;;;;;;21.40;14.48;;;0.30;99.90;;;;;;5041240;28;20024;-38
2022/12/12 06:03:13;;;;;;;23.70;15.18;;;0.30;99.90;;;;;;5042123;28;20381;-39
2022/12/12 06:05:38;;;;;;;21.45;14.05;;;0.20;99.90;;;;;;5040883;28;20063;-40
2022/12/12 06:08:04;;;;;;;23.02;14.57;;;0.20;99.90;;;;;;5042085;28;20465;-40
2022/12/12 06:10:30;;;;;;;22.83;15.00;;;0.20;99.90;;;;;;5041187;28;20029;-40
2022/12/12 06:12:55;;;;;;;24.35;15.05;;;0.20;99.90;;;;;;5041257;28;20376;-41
2022/12/12 06:15:21;;;;;;;25.00;15.05;;;0.20;99.90;;;;;;5041263;28;20178;-42
2022/12/12 06:17:46;;;;;;;24.95;14.73;;;0.10;99.90;;;;;;5041076;28;20033;-41
2022/12/12 06:20:12;;;;;;;24.63;15.65;;;0.10;99.90;;;;;;5040918;28;20037;-41
2022/12/12 06:22:38;;;;;;;26.92;15.98;;;0.10;99.90;;;;;;5041137;28;20116;-38
2022/12/12 06:25:04;;;;;;;26.38;15.27;;;0.10;99.90;;;;;;5041683;28;20025;-38
2022/12/12 06:27:29;;;;;;;28.77;16.42;;;0.10;99.90;;;;;;5041630;28;20522;-40
2022/12/12 06:29:55;;;;;;;26.85;16.83;;;0.10;99.90;;;;;;5041365;28;20075;-39
2022/12/12 06:32:20;;;;;;;28.73;17.33;;;0.10;99.90;;;;;;5041615;28;20053;-39
2022/12/12 06:34:49;;;;;;;30.58;18.17;;;0.10;99.90;;;;;;5044658;28;20568;-39
2022/12/12 06:37:15;;;;;;;32.67;18.27;;;0.00;99.90;;;;;;5041174;28;20029;-42
2022/12/12 06:39:41;;;;;;;31.17;19.15;;;0.00;99.90;;;;;;5037768;28;20040;-40
2022/12/12 06:42:12;;;;;;;31.48;19.45;;;0.00;99.90;;;;;;5039767;28;20021;-40
2022/12/12 06:44:38;;;;;;;32.88;19.67;;;0.00;99.90;;;;;;5040230;28;20085;-41
2022/12/12 06:47:03;;;;;;;33.78;19.77;;;0.00;99.90;;;;;;5039112;28;20596;-40
2022/12/12 06:49:29;;;;;;;28.60;18.33;;;0.00;99.90;;;;;;5040380;28;20477;-40
2022/12/12 06:51:55;;;;;;;29.38;18.35;;;0.00;99.90;;;;;;5040219;28;20148;-40
2022/12/12 06:54:20;;;;;;;28.60;18.17;;;-0.10;99.90;;;;;;5038873;28;20079;-40
2022/12/12 06:56:46;;;;;;;29.48;18.25;;;-0.10;99.90;;;;;;5039975;28;20033;-41
2022/12/12 06:59:12;;;;;;;28.90;17.88;;;-0.10;99.90;;;;;;5039635;28;20056;-39
2022/12/12 07:01:38;;;;;;;26.48;17.48;;;-0.10;99.90;;;;;;5038901;28;20107;-40
2022/12/12 07:04:04;;;;;;;28.13;17.73;;;-0.10;99.90;;;;;;5040330;28;20032;-42
2022/12/12 07:06:30;;;;;;;28.63;17.83;;;-0.10;99.90;;;;;;5040323;28;20025;-40
2022/12/12 07:08:57;;;;;;;25.85;16.60;;;-0.10;99.90;;;;;;5038624;28;20036;-41
2022/12/12 07:11:26;;;;;;;27.92;16.17;;;-0.10;99.90;;;;;;5039048;28;20021;-41
2022/12/12 07:13:55;;;;;;;25.65;16.85;;;-0.20;99.90;;;;;;5029226;28;20148;-40
2022/12/12 07:16:20;;;;;;;25.85;16.27;;;-0.20;99.90;;;;;;5039525;28;20021;-41
2022/12/12 07:18:47;;;;;;;27.10;16.67;;;-0.20;99.90;;;;;;5040594;28;20028;-41
2022/12/12 07:21:15;;;;;;;25.50;17.00;;;-0.20;99.90;;;;;;5039967;28;20025;-41
2022/12/12 07:23:41;;;;;;;30.58;17.13;;;-0.20;99.90;;;;;;5040307;28;20075;-40
2022/12/12 07:26:12;;;;;;;27.40;16.92;;;-0.20;99.90;;;;;;5040351;28;20036;-40
2022/12/12 07:28:37;;;;;;;24.63;16.45;;;-0.20;99.90;;;;;;5040312;28;20068;-41
2022/12/12 07:31:08;;;;;;;27.00;16.70;;;-0.20;99.90;;;;;;5039164;28;20500;-40
2022/12/12 07:33:34;;;;;;;25.70;17.30;;;-0.20;99.90;;;;;;5039742;28;20534;-39
2022/12/12 07:36:01;;;;;;;24.90;16.45;;;-0.20;99.90;;;;;;5039828;28;20059;-40
2022/12/12 07:38:27;;;;;;;25.30;15.60;;;-0.20;99.90;;;;;;5040051;28;20029;-39
2022/12/12 07:40:53;;;;;;;28.15;16.15;;;-0.30;99.90;;;;;;5039493;28;20136;-40
2022/12/12 07:43:19;;;;;;;25.17;15.45;;;-0.30;99.90;;;;;;5039039;28;20453;-42
2022/12/12 07:45:46;;;;;;;23.30;15.23;;;-0.30;99.90;;;;;;5038695;28;20036;-41
2022/12/12 07:48:12;;;;;;;26.30;15.43;;;-0.30;99.90;;;;;;5037984;28;20033;-39
2022/12/12 07:50:39;;;;;;;26.35;16.13;;;-0.30;99.90;;;;;;5038867;28;20032;-38
2022/12/12 07:53:06;;;;;;;24.90;15.35;;;-0.30;99.90;;;;;;5039271;28;20017;-40
2022/12/12 07:55:32;;;;;;;25.90;16.20;;;-0.30;99.90;;;;;;5039710;28;20037;-40
2022/12/12 07:57:58;;;;;;;28.20;16.50;;;-0.30;99.90;;;;;;5038917;28;20025;-40
2022/12/12 08:00:24;;;;;;;26.80;16.67;;;-0.30;99.90;;;;;;5039909;28;20110;-39
2022/12/12 08:02:49;;;;;;;25.77;15.77;;;-0.40;99.90;;;;;;5039560;28;20096;-38
2022/12/12 08:05:15;;;;;;;24.75;14.82;;;-0.30;99.90;;;;;;5039972;28;20854;-40
2022/12/12 08:07:41;;;;;;;23.15;14.98;;;-0.30;99.90;;;;;;5038996;28;20028;-39
2022/12/12 08:10:07;;;;;;;26.38;15.90;;;-0.40;99.90;;;;;;5039073;28;20024;-37
2022/12/12 08:12:33;;;;;;;25.15;16.20;;;-0.40;99.90;;;;;;5038965;28;20029;-38
2022/12/12 08:14:59;;;;;;;23.05;15.00;;;-0.30;99.90;;;;;;5038771;28;20861;-38
2022/12/12 08:17:24;;;;;;;22.92;14.02;;;-0.30;99.90;;;;;;5040070;28;20075;-38
2022/12/12 08:19:50;;;;;;;23.48;15.27;;;-0.30;99.90;;;;;;5042044;28;20033;-40
2022/12/12 08:22:16;;;;;;;26.60;14.98;;;-0.30;99.90;;;;;;5043272;28;20021;-40
2022/12/12 08:24:41;;;;;;;23.70;14.25;;;-0.30;99.90;;;;;;5042770;28;20036;-40
2022/12/12 08:27:07;;;;;;;24.67;15.13;;;-0.30;99.90;;;;;;5042685;28;20575;-40
2022/12/12 08:29:32;;;;;;;22.85;14.55;;;-0.30;99.90;;;;;;5043512;28;20032;-41
2022/12/12 08:31:58;;;;;;;26.80;15.50;;;-0.30;99.90;;;;;;5043378;28;20044;-40
2022/12/12 08:34:26;;;;;;;25.88;14.80;;;-0.30;99.90;;;;;;5042655;28;20118;-39
2022/12/12 08:36:53;;;;;;;25.23;14.38;;;-0.40;99.90;;;;;;5043711;28;20059;-35
2022/12/12 08:39:19;;;;;;;23.88;15.10;;;-0.30;99.90;;;;;;5042199;28;20029;-40
2022/12/12 08:41:48;;;;;;;29.00;15.75;;;-0.40;99.90;;;;;;5031645;28;20132;-39
2022/12/12 08:44:16;;;;;;;25.05;15.23;;;-0.40;99.90;;;;;;5042969;28;20040;-40
2022/12/12 08:46:41;;;;;;;24.58;14.85;;;-0.30;99.90;;;;;;5042566;28;20051;-40
2022/12/12 08:49:08;;;;;;;26.63;15.35;;;-0.30;99.90;;;;;;5041959;28;20510;-38
2022/12/12 08:51:37;;;;;;;26.10;14.25;;;-0.30;99.90;;;;;;5043416;28;20025;-40
2022/12/12 08:54:03;;;;;;;26.08;14.88;;;-0.30;99.90;;;;;;5042032;28;20690;-40
2022/12/12 08:56:29;;;;;;;27.45;15.93;;;-0.30;99.90;;;;;;5043255;28;20029;-39
2022/12/12 08:58:54;;;;;;;25.08;14.30;;;-0.30;99.90;;;;;;5042964;28;20530;-39
2022/12/12 09:01:23;;;;;;;27.73;15.65;;;-0.30;99.90;;;;;;5041717;28;20029;-37
2022/12/12 09:03:50;;;;;;;25.25;15.40;;;-0.30;99.90;;;;;;5022699;28;20047;-40
2022/12/12 09:06:17;;;;;;;28.90;15.27;;;-0.30;99.90;;;;;;5037182;28;20021;-40
2022/12/12 09:08:42;;;;;;;23.13;14.05;;;-0.30;99.90;;;;;;5041615;28;20094;-39
2022/12/12 09:11:08;;;;;;;27.65;14.70;;;-0.40;99.90;;;;;;5040839;28;20042;-40
2022/12/12 09:13:34;;;;;;;26.45;14.02;;;-0.40;99.90;;;;;;5042979;28;20043;-41
2022/12/12 09:16:00;;;;;;;22.98;13.95;;;-0.30;99.90;;;;;;5042211;28;20033;-38
2022/12/12 09:18:26;;;;;;;23.80;13.57;;;-0.30;99.90;;;;;;5043426;28;20367;-40
2022/12/12 09:20:57;;;;;;;25.58;13.80;;;-0.30;99.90;;;;;;5042224;28;20029;-40
2022/12/12 09:23:24;;;;;;;21.50;13.20;;;-0.30;99.90;;;;;;5041328;28;20031;-40
2022/12/12 09:25:49;;;;;;;23.85;13.65;;;-0.30;99.90;;;;;;5041448;28;20068;-39
2022/12/12 09:28:17;;;;;;;21.30;12.63;;;-0.30;99.90;;;;;;5041635;28;20214;-41
2022/12/12 09:30:43;;;;;;;20.80;11.95;;;-0.30;99.90;;;;;;5040405;28;20048;-41
2022/12/12 09:33:13;;;;;;;24.80;14.37;;;-0.30;99.90;;;;;;5042328;28;20037;-41
2022/12/12 09:35:39;;;;;;;24.70;13.13;;;-0.30;99.90;;;;;;5041685;28;20225;-41
2022/12/12 09:38:05;;;;;;;22.50;12.68;;;-0.30;99.90;;;;;;5041930;28;20102;-39
2022/12/12 09:40:57;;;;;;;23.08;13.57;;;-0.30;99.90;;;;;;5042813;28;20090;-39
2022/12/12 09:43:27;;;;;;;21.10;12.07;;;-0.30;99.90;;;;;;5038912;28;20032;-40
2022/12/12 09:45:53;;;;;;;21.75;12.45;;;-0.30;99.90;;;;;;5042080;28;20493;-40
2022/12/12 09:48:26;;;;;;;21.17;11.88;;;-0.30;99.90;;;;;;5041508;28;20054;-40
2022/12/12 09:50:52;;;;;;;20.23;11.70;;;-0.30;99.90;;;;;;5041520;28;20033;-40
2022/12/12 09:53:20;;;;;;;19.02;10.68;;;-0.30;99.90;;;;;;5041558;28;20029;-40
2022/12/12 09:56:02;;;;;;;21.50;11.95;;;-0.20;99.90;;;;;;5042252;28;20041;-40
2022/12/12 09:58:27;;;;;;;18.42;11.73;;;-0.20;99.90;;;;;;5041028;28;20136;-40
2022/12/12 10:01:16;;;;;;;21.67;12.07;;;-0.20;99.90;;;;;;5041049;28;20029;-40
2022/12/12 10:03:52;;;;;;;21.00;11.70;;;-0.20;99.90;;;;;;5040488;28;20028;-40
2022/12/12 10:06:19;;;;;;;22.05;11.77;;;-0.20;99.90;;;;;;5042094;28;20086;-39
2022/12/12 10:08:57;;;;;;;19.05;11.95;;;-0.20;99.90;;;;;;5040681;28;20814;-40
2022/12/12 10:11:49;;;;;;;18.90;11.23;;;-0.10;99.90;;;;;;5041364;28;20044;-38
2022/12/12 10:14:52;;;;;;;20.60;12.73;;;-0.10;99.90;;;;;;5040857;28;20041;-40
2022/12/12 10:17:43;;;;;;;19.20;10.70;;;-0.10;99.90;;;;;;5041971;28;20025;-41
2022/12/12 10:20:15;;;;;;;19.63;11.55;;;-0.10;99.90;;;;;;5030655;28;20144;-41
2022/12/12 10:22:55;;;;;;;17.88;11.55;;;0.00;99.90;;;;;;5040615;28;20723;-40
2022/12/12 10:25:42;;;;;;;18.55;11.48;;;0.00;99.90;;;;;;5031231;28;20032;-39
2022/12/12 10:28:11;;;;;;;19.45;11.27;;;0.00;99.90;;;;;;5040752;28;20025;-40
2022/12/12 10:31:03;;;;;;;20.00;11.02;;;0.00;99.90;;;;;;5040875;28;20033;-40
2022/12/12 10:33:56;;;;;;;18.58;11.77;;;0.00;99.90;;;;;;5040630;28;20049;-41
2022/12/12 10:36:25;;;;;;;18.90;11.55;;;0.00;99.90;;;;;;5042004;28;20029;-40
2022/12/12 10:39:26;;;;;;;23.38;12.23;;;0.00;99.90;;;;;;5040177;28;20028;-40
2022/12/12 10:42:16;;;;;;;19.70;11.50;;;0.10;99.90;;;;;;5040857;28;20029;-41
2022/12/12 10:45:07;;;;;;;19.77;12.15;;;0.10;99.90;;;;;;5040746;28;20021;-41
2022/12/12 10:47:33;;;;;;;21.63;10.70;;;0.10;99.90;;;;;;5020079;28;20120;-40
2022/12/12 10:50:21;;;;;;;19.88;11.57;;;0.10;99.90;;;;;;5037066;28;20017;-39
2022/12/12 10:52:47;;;;;;;19.80;11.50;;;0.10;99.90;;;;;;5020992;28;20033;-40
2022/12/12 10:55:19;;;;;;;20.17;11.70;;;0.10;99.90;;;;;;5037699;28;20037;-40
2022/12/12 10:57:44;;;;;;;19.88;12.38;;;0.10;99.90;;;;;;5040717;28;20025;-40
2022/12/12 11:00:30;;;;;;;21.08;11.52;;;0.20;99.90;;;;;;5039586;28;20029;-39
2022/12/12 11:02:57;;;;;;;21.08;11.88;;;0.20;99.90;;;;;;5020914;28;20028;-41
2022/12/12 11:05:28;;;;;;;19.73;11.95;;;0.20;99.90;;;;;;5037168;28;20060;-40
2022/12/12 11:08:27;;;;;;;20.00;11.32;;;0.20;99.90;;;;;;5041085;28;20059;-39
2022/12/12 11:11:22;;;;;;;19.60;11.18;;;0.20;99.90;;;;;;5038406;28;20068;-41
2022/12/12 11:13:58;;;;;;;18.38;10.55;;;0.30;99.90;;;;;;5040261;28;20051;-39
2022/12/12 11:16:38;;;;;;;18.35;11.45;;;0.30;99.90;;;;;;5039566;28;20028;-40
2022/12/12 11:19:19;;;;;;;18.30;10.90;;;0.30;99.90;;;;;;5039856;28;20135;-38
2022/12/12 11:21:46;;;;;;;16.80;9.60;;;0.30;99.90;;;;;;5039304;28;20107;-41
2022/12/12 11:24:18;;;;;;;18.60;10.38;;;0.30;99.90;;;;;;5039994;28;20381;-40
2022/12/12 11:26:57;;;;;;;18.42;10.38;;;0.30;99.90;;;;;;5038924;28;20079;-40
2022/12/12 11:29:54;;;;;;;18.58;10.02;;;0.30;99.90;;;;;;5037212;28;20021;-39
2022/12/12 11:32:27;;;;;;;20.35;10.57;;;0.40;99.90;;;;;;5037567;28;20040;-38
2022/12/12 11:34:56;;;;;;;18.10;10.50;;;0.40;99.90;;;;;;5039435;28;20033;-39
2022/12/12 11:37:27;;;;;;;16.27;10.00;;;0.40;99.90;;;;;;5039560;28;20090;-41
2022/12/12 11:39:55;;;;;;;17.83;10.77;;;0.40;99.90;;;;;;5039107;28;20035;-39
2022/12/12 11:42:28;;;;;;;16.20;9.65;;;0.50;99.90;;;;;;5034582;28;20063;-39
2022/12/12 11:45:20;;;;;;;15.23;9.25;;;0.50;99.90;;;;;;5039173;28;20033;-41
2022/12/12 11:47:46;;;;;;;15.65;10.10;;;0.50;99.90;;;;;;5038802;28;20056;-41
2022/12/12 11:50:27;;;;;;;17.65;9.77;;;0.60;99.90;;;;;;5038119;28;20060;-37
2022/12/12 11:53:00;;;;;;;19.25;10.30;;;0.60;99.90;;;;;;5035884;28;20539;-37
2022/12/12 11:55:51;;;;;;;15.70;9.02;;;0.60;99.90;;;;;;5039673;28;20029;-41
2022/12/12 11:58:52;;;;;;;17.80;10.57;;;0.70;99.90;;;;;;5038287;28;20368;-40
2022/12/12 12:01:43;;;;;;;18.05;10.15;;;0.70;99.90;;;;;;5037826;28;20037;-39
2022/12/12 12:04:28;;;;;;;18.40;10.23;;;0.70;99.90;;;;;;5038197;28;20037;-38
2022/12/12 12:07:16;;;;;;;17.60;9.93;;;0.70;99.90;;;;;;5039516;28;20021;-41
2022/12/12 12:09:41;;;;;;;16.30;10.27;;;0.70;99.90;;;;;;5038895;28;20021;-40
2022/12/12 12:12:45;;;;;;;20.70;11.27;;;0.80;99.90;;;;;;5037034;28;20121;-40
2022/12/12 12:15:56;;;;;;;17.42;10.70;;;0.80;99.90;;;;;;5019310;28;20107;-39
2022/12/12 12:18:47;;;;;;;16.83;10.15;;;0.90;99.90;;;;;;5025825;28;20032;-39
2022/12/12 12:21:26;;;;;;;22.88;11.68;;;0.90;99.90;;;;;;5039463;28;20033;-35
2022/12/12 12:24:03;;;;;;;18.77;10.82;;;0.90;99.90;;;;;;5036254;28;20054;-39
2022/12/12 12:26:44;;;;;;;17.33;10.07;;;0.90;99.90;;;;;;5038636;28;20036;-39
2022/12/12 12:29:19;;;;;;;18.75;10.35;;;0.90;99.90;;;;;;5038071;28;20033;-41
2022/12/12 12:32:26;;;;;;;17.48;10.73;;;0.90;99.90;;;;;;5037927;28;20041;-40
2022/12/12 12:35:23;;;;;;;14.55;9.35;;;1.00;99.90;;;;;;5029835;28;20049;-38
2022/12/12 12:37:55;;;;;;;14.95;9.23;;;1.00;99.90;;;;;;5038982;28;20027;-40
2022/12/12 12:40:58;;;;;;;15.35;9.05;;;1.00;99.90;;;;;;5038532;28;20037;-41
2022/12/12 12:43:45;;;;;;;17.05;9.35;;;1.10;99.90;;;;;;5039978;28;20037;-40
2022/12/12 12:46:36;;;;;;;15.70;9.95;;;1.10;99.90;;;;;;5038600;28;20679;-40
2022/12/12 12:49:22;;;;;;;13.57;8.23;;;1.10;99.90;;;;;;5037995;28;20148;-40
2022/12/12 12:52:04;;;;;;;15.70;9.00;;;1.10;99.90;;;;;;5038685;28;20033;-39
2022/12/12 12:54:36;;;;;;;13.75;8.07;;;1.10;99.90;;;;;;5038352;28;20036;-40
2022/12/12 12:57:16;;;;;;;13.63;8.35;;;1.20;99.90;;;;;;5038940;28;20025;-40
2022/12/12 12:59:45;;;;;;;14.60;7.97;;;1.20;99.90;;;;;;5038011;28;20829;-39
2022/12/12 13:02:38;;;;;;;13.10;7.70;;;1.20;99.90;;;;;;5039490;28;20120;-40
2022/12/12 13:05:29;;;;;;;12.80;8.02;;;1.20;99.90;;;;;;5041510;28;20032;-39
2022/12/12 13:08:16;;;;;;;11.85;7.72;;;1.30;99.90;;;;;;5036966;28;20037;-41
2022/12/12 13:10:46;;;;;;;12.57;7.25;;;1.20;99.90;;;;;;5041636;28;20037;-40
2022/12/12 13:13:29;;;;;;;11.23;6.78;;;1.30;99.90;;;;;;5042788;28;20769;-41
2022/12/12 13:16:17;;;;;;;14.43;8.63;;;1.30;99.90;;;;;;5031854;28;20127;-39
2022/12/12 13:18:45;;;;;;;12.65;7.20;;;1.30;99.90;;;;;;5041633;28;20028;-39
2022/12/12 13:21:16;;;;;;;13.32;8.55;;;1.30;99.90;;;;;;5041894;28;20033;-40
2022/12/12 13:24:00;;;;;;;12.55;7.38;;;1.30;99.90;;;;;;5041957;28;20021;-37